Serenade Of The Seas — C6FV8 — position and weather

sailwx.info

Track history (hours):
 
Tides and Currents Weather Stations Pressure Air Temp Water Temp Dewpoint Dewpoint Depression Visibility Wind Speed Wind Dir Waves Ship Positions

Serenade Of The Seas

Operator: Royal Caribbean Cruises Ltd

Last reported at 2017-Nov-24 22:00 UTC. Time now 2017-Nov-24 22:23 UTC.
Position N 26°07' W 079°57'.

Length 294 m; draft 8.4 m.

Type: Ship. MMSI: 311492000.

Date/timePositionNaut miles runAvg speedWind from/ knotsBaromVisibWave heightAir tempDewpointWater temp
2017-Nov-24 22:00N 26°07' W 079°57'714.4
2017-Nov-24 21:30N 26°06' W 080°04'3 4.3
2017-Nov-24 20:55N 26°05' W 080°07'0 0.0
2017-Nov-24 20:28N 26°05' W 080°07'0 0.0
2017-Nov-24 19:58N 26°05' W 080°07'0 0.0
2017-Nov-24 19:28N 26°05' W 080°07'0 0.0
2017-Nov-24 18:58N 26°05' W 080°07'0 0.0
2017-Nov-24 18:28N 26°05' W 080°07'0 0.0
2017-Nov-24 17:58N 26°05' W 080°07'0 0.0
2017-Nov-24 17:28N 26°05' W 080°07'0 0.0
2017-Nov-24 16:58N 26°05' W 080°07'0 0.0
2017-Nov-24 16:28N 26°05' W 080°07'0 0.0
2017-Nov-24 15:46N 26°05' W 080°07'0 0.0
2017-Nov-24 15:28N 26°05' W 080°07'0 0.0
2017-Nov-24 14:49N 26°05' W 080°07'0 0.0
2017-Nov-24 14:25N 26°05' W 080°07'0 0.0
2017-Nov-24 13:49N 26°05' W 080°07'0 0.0
2017-Nov-24 13:19N 26°05' W 080°07'0 0.0
2017-Nov-24 12:34N 26°05' W 080°07'0 0.0
2017-Nov-24 12:22N 26°05' W 080°07'0 0.0
2017-Nov-24 11:52N 26°05' W 080°07'1 1.9
2017-Nov-24 11:30N 26°06' W 080°07'510.1
2017-Nov-24 11:00N 26°05' W 080°01'4 8.6
2017-Nov-24 10:30N 26°03' W 079°57'714.7
2017-Nov-24 10:00N 25°57' W 079°52'713.3
2017-Nov-24 09:30N 25°51' W 079°50'714.1
2017-Nov-24 09:00N 25°44' W 079°52'714.1
2017-Nov-24 08:30N 25°37' W 079°54'714.2
2017-Nov-24 08:00N 25°30' W 079°56'714.3
2017-Nov-24 07:30N 25°23' W 079°57'714.0
2017-Nov-24 07:00N 25°16' W 079°59'714.1
2017-Nov-24 06:29N 25°09' W 080°02'914.5
2017-Nov-24 05:50N 25°02' W 080°08'514.8
2017-Nov-24 05:28N 24°57' W 080°11'45414.7
2017-Nov-22 22:39N 20°38' W 086°56'215.6
2017-Nov-22 22:30N 20°37' W 086°57'713.2
2017-Nov-22 22:00N 20°30' W 086°59'1 2.3
2017-Nov-22 21:29N 20°29' W 086°59'0 0.0
2017-Nov-22 20:59N 20°29' W 086°59'0 0.0
2017-Nov-22 20:29N 20°29' W 086°59'0 0.0
2017-Nov-22 19:59N 20°29' W 086°59'0 0.0
2017-Nov-22 19:29N 20°29' W 086°59'  
2017-Nov-18 01:28N 25°25' W 079°51'715.2
2017-Nov-18 01:00N 25°32' W 079°51'714.9
2017-Nov-18 00:31N 25°40' W 079°51'714.1
2017-Nov-18 00:00N 25°46' W 079°53'714.2
2017-Nov-17 23:30N 25°53' W 079°56'714.8
2017-Nov-17 23:00N 25°60' W 079°59'713.8
2017-Nov-17 22:30N 26°05' W 080°04'2 3.3
2017-Nov-17 21:50N 26°05' W 080°07'0 0.0
2017-Nov-17 21:23N 26°05' W 080°07'0 0.0
2017-Nov-17 20:50N 26°05' W 080°07'0 0.0
2017-Nov-17 20:20N 26°05' W 080°07'0 0.0
2017-Nov-17 19:53N 26°05' W 080°07'0 0.0
2017-Nov-17 19:23N 26°05' W 080°07'0 0.0
2017-Nov-17 18:50N 26°05' W 080°07'0 0.0
2017-Nov-17 18:26N 26°05' W 080°07'0 0.0
2017-Nov-17 17:56N 26°05' W 080°07'0 0.0
2017-Nov-17 17:26N 26°05' W 080°07'0 0.0
2017-Nov-17 16:56N 26°05' W 080°07'0 0.0
2017-Nov-17 16:26N 26°05' W 080°07'0 0.0
2017-Nov-17 15:59N 26°05' W 080°07'0 0.0
2017-Nov-17 15:29N 26°05' W 080°07'0 0.0
2017-Nov-17 14:59N 26°05' W 080°07'0 0.0
2017-Nov-17 14:26N 26°05' W 080°07'0 0.0
2017-Nov-17 13:59N 26°05' W 080°07'0 0.0
2017-Nov-17 13:29N 26°05' W 080°07'0 0.0
2017-Nov-17 12:59N 26°05' W 080°07'0 0.0
2017-Nov-17 12:29N 26°05' W 080°07'0 0.0
2017-Nov-17 11:59N 26°05' W 080°07'1 1.4
2017-Nov-17 11:30N 26°06' W 080°07'4 8.2
2017-Nov-17 11:00N 26°05' W 080°02'4 8.3
2017-Nov-17 10:30N 26°04' W 079°58'713.6
2017-Nov-17 10:00N 25°58' W 079°55'714.6
2017-Nov-17 09:30N 25°51' W 079°51'713.8
2017-Nov-17 09:01N 25°45' W 079°51'714.7
2017-Nov-17 08:31N 25°38' W 079°54'815.5
2017-Nov-17 08:00N 25°30' W 079°56'816.1
2017-Nov-17 07:30N 25°22' W 079°58'47815.4
2017-Nov-16 00:23N 20°38' W 086°56'615.6
2017-Nov-16 00:00N 20°33' W 086°58'4 8.1
2017-Nov-15 23:30N 20°29' W 086°59'0 0.0
2017-Nov-15 22:56N 20°29' W 086°59'0 0.0
2017-Nov-15 22:29N 20°29' W 086°59'0 0.0
2017-Nov-15 21:59N 20°29' W 086°59'0 0.0
2017-Nov-15 21:29N 20°29' W 086°59'0 0.0
2017-Nov-15 20:53N 20°29' W 086°59'0 0.0
2017-Nov-15 20:29N 20°29' W 086°59'0 0.0
2017-Nov-15 19:56N 20°29' W 086°59'0 0.0
2017-Nov-15 19:29N 20°29' W 086°59'0 0.0
2017-Nov-15 18:59N 20°29' W 086°59'0 0.0
2017-Nov-15 18:29N 20°29' W 086°59'0 0.0
2017-Nov-15 17:59N 20°29' W 086°59'0 0.0
2017-Nov-15 17:29N 20°29' W 086°59'0 0.0
2017-Nov-15 16:59N 20°29' W 086°59'0 0.0
2017-Nov-15 16:29N 20°29' W 086°59'0 0.0
2017-Nov-15 15:59N 20°29' W 086°59'0 0.0
2017-Nov-15 15:29N 20°29' W 086°59'0 0.0
2017-Nov-15 14:59N 20°29' W 086°59'0 0.0
2017-Nov-15 14:29N 20°29' W 086°59'0 0.0
2017-Nov-15 13:59N 20°29' W 086°59'0 0.0
2017-Nov-15 13:29N 20°29' W 086°59'0 0.0
2017-Nov-15 12:59N 20°29' W 086°59'0 0.0
2017-Nov-15 12:29N 20°29' W 086°59'1 2.7
2017-Nov-15 12:00N 20°30' W 086°59'510.5
2017-Nov-15 11:30N 20°35' W 086°57'711.6
2017-Nov-15 10:54N 20°41' W 086°53'  
Track history (hours):
 
Tides and Currents Weather Stations Pressure Air Temp Water Temp Dewpoint Dewpoint Depression Visibility Wind Speed Wind Dir Waves Ship Positions

Serenade Of The Seas

Operator: Royal Caribbean Cruises Ltd

Last reported at 2017-Nov-24 22:00 UTC. Time now 2017-Nov-24 22:23 UTC.
Position N 26°07' W 079°57'.

Length 294 m; draft 8.4 m.

Type: Ship. MMSI: 311492000.

Date/timePositionNaut miles runAvg speedWind from/ knotsBaromVisibWave heightAir tempDewpointWater temp
2017-Nov-24 22:00N 26°07' W 079°57'714.4
2017-Nov-24 21:30N 26°06' W 080°04'3 4.3
2017-Nov-24 20:55N 26°05' W 080°07'0 0.0
2017-Nov-24 20:28N 26°05' W 080°07'0 0.0
2017-Nov-24 19:58N 26°05' W 080°07'0 0.0
2017-Nov-24 19:28N 26°05' W 080°07'0 0.0
2017-Nov-24 18:58N 26°05' W 080°07'0 0.0
2017-Nov-24 18:28N 26°05' W 080°07'0 0.0
2017-Nov-24 17:58N 26°05' W 080°07'0 0.0
2017-Nov-24 17:28N 26°05' W 080°07'0 0.0
2017-Nov-24 16:58N 26°05' W 080°07'0 0.0
2017-Nov-24 16:28N 26°05' W 080°07'0 0.0
2017-Nov-24 15:46N 26°05' W 080°07'0 0.0
2017-Nov-24 15:28N 26°05' W 080°07'0 0.0
2017-Nov-24 14:49N 26°05' W 080°07'0 0.0
2017-Nov-24 14:25N 26°05' W 080°07'0 0.0
2017-Nov-24 13:49N 26°05' W 080°07'0 0.0
2017-Nov-24 13:19N 26°05' W 080°07'0 0.0
2017-Nov-24 12:34N 26°05' W 080°07'0 0.0
2017-Nov-24 12:22N 26°05' W 080°07'0 0.0
2017-Nov-24 11:52N 26°05' W 080°07'1 1.9
2017-Nov-24 11:30N 26°06' W 080°07'510.1
2017-Nov-24 11:00N 26°05' W 080°01'4 8.6
2017-Nov-24 10:30N 26°03' W 079°57'714.7
2017-Nov-24 10:00N 25°57' W 079°52'713.3
2017-Nov-24 09:30N 25°51' W 079°50'714.1
2017-Nov-24 09:00N 25°44' W 079°52'714.1
2017-Nov-24 08:30N 25°37' W 079°54'714.2
2017-Nov-24 08:00N 25°30' W 079°56'714.3
2017-Nov-24 07:30N 25°23' W 079°57'714.0
2017-Nov-24 07:00N 25°16' W 079°59'714.1
2017-Nov-24 06:29N 25°09' W 080°02'914.5
2017-Nov-24 05:50N 25°02' W 080°08'514.8
2017-Nov-24 05:28N 24°57' W 080°11'45414.7
2017-Nov-22 22:39N 20°38' W 086°56'215.6
2017-Nov-22 22:30N 20°37' W 086°57'713.2
2017-Nov-22 22:00N 20°30' W 086°59'1 2.3
2017-Nov-22 21:29N 20°29' W 086°59'0 0.0
2017-Nov-22 20:59N 20°29' W 086°59'0 0.0
2017-Nov-22 20:29N 20°29' W 086°59'0 0.0
2017-Nov-22 19:59N 20°29' W 086°59'0 0.0
2017-Nov-22 19:29N 20°29' W 086°59'  
2017-Nov-18 01:28N 25°25' W 079°51'715.2
2017-Nov-18 01:00N 25°32' W 079°51'714.9
2017-Nov-18 00:31N 25°40' W 079°51'714.1
2017-Nov-18 00:00N 25°46' W 079°53'714.2
2017-Nov-17 23:30N 25°53' W 079°56'714.8
2017-Nov-17 23:00N 25°60' W 079°59'713.8
2017-Nov-17 22:30N 26°05' W 080°04'2 3.3
2017-Nov-17 21:50N 26°05' W 080°07'0 0.0
2017-Nov-17 21:23N 26°05' W 080°07'0 0.0
2017-Nov-17 20:50N 26°05' W 080°07'0 0.0
2017-Nov-17 20:20N 26°05' W 080°07'0 0.0
2017-Nov-17 19:53N 26°05' W 080°07'0 0.0
2017-Nov-17 19:23N 26°05' W 080°07'0 0.0
2017-Nov-17 18:50N 26°05' W 080°07'0 0.0
2017-Nov-17 18:26N 26°05' W 080°07'0 0.0
2017-Nov-17 17:56N 26°05' W 080°07'0 0.0
2017-Nov-17 17:26N 26°05' W 080°07'0 0.0
2017-Nov-17 16:56N 26°05' W 080°07'0 0.0
2017-Nov-17 16:26N 26°05' W 080°07'0 0.0
2017-Nov-17 15:59N 26°05' W 080°07'0 0.0
2017-Nov-17 15:29N 26°05' W 080°07'0 0.0
2017-Nov-17 14:59N 26°05' W 080°07'0 0.0
2017-Nov-17 14:26N 26°05' W 080°07'0 0.0
2017-Nov-17 13:59N 26°05' W 080°07'0 0.0
2017-Nov-17 13:29N 26°05' W 080°07'0 0.0
2017-Nov-17 12:59N 26°05' W 080°07'0 0.0
2017-Nov-17 12:29N 26°05' W 080°07'0 0.0
2017-Nov-17 11:59N 26°05' W 080°07'1 1.4
2017-Nov-17 11:30N 26°06' W 080°07'4 8.2
2017-Nov-17 11:00N 26°05' W 080°02'4 8.3
2017-Nov-17 10:30N 26°04' W 079°58'713.6
2017-Nov-17 10:00N 25°58' W 079°55'714.6
2017-Nov-17 09:30N 25°51' W 079°51'713.8
2017-Nov-17 09:01N 25°45' W 079°51'714.7
2017-Nov-17 08:31N 25°38' W 079°54'815.5
2017-Nov-17 08:00N 25°30' W 079°56'816.1
2017-Nov-17 07:30N 25°22' W 079°58'47815.4
2017-Nov-16 00:23N 20°38' W 086°56'615.6
2017-Nov-16 00:00N 20°33' W 086°58'4 8.1
2017-Nov-15 23:30N 20°29' W 086°59'0 0.0
2017-Nov-15 22:56N 20°29' W 086°59'0 0.0
2017-Nov-15 22:29N 20°29' W 086°59'0 0.0
2017-Nov-15 21:59N 20°29' W 086°59'0 0.0
2017-Nov-15 21:29N 20°29' W 086°59'0 0.0
2017-Nov-15 20:53N 20°29' W 086°59'0 0.0
2017-Nov-15 20:29N 20°29' W 086°59'0 0.0
2017-Nov-15 19:56N 20°29' W 086°59'0 0.0
2017-Nov-15 19:29N 20°29' W 086°59'0 0.0
2017-Nov-15 18:59N 20°29' W 086°59'0 0.0
2017-Nov-15 18:29N 20°29' W 086°59'0 0.0
2017-Nov-15 17:59N 20°29' W 086°59'0 0.0
2017-Nov-15 17:29N 20°29' W 086°59'0 0.0
2017-Nov-15 16:59N 20°29' W 086°59'0 0.0
2017-Nov-15 16:29N 20°29' W 086°59'0 0.0
2017-Nov-15 15:59N 20°29' W 086°59'0 0.0
2017-Nov-15 15:29N 20°29' W 086°59'0 0.0
2017-Nov-15 14:59N 20°29' W 086°59'0 0.0
2017-Nov-15 14:29N 20°29' W 086°59'0 0.0
2017-Nov-15 13:59N 20°29' W 086°59'0 0.0
2017-Nov-15 13:29N 20°29' W 086°59'0 0.0
2017-Nov-15 12:59N 20°29' W 086°59'0 0.0
2017-Nov-15 12:29N 20°29' W 086°59'1 2.7
2017-Nov-15 12:00N 20°30' W 086°59'510.5
2017-Nov-15 11:30N 20°35' W 086°57'711.6
2017-Nov-15 10:54N 20°41' W 086°53'  

Dump ship's entire track history